sensor_id;sensor_type;location;lat;lon;timestamp;temperature;humidity
56308;DHT22;42217;50.422;7.210;2024-03-06T00:02:26;4.10;99.90
56308;DHT22;42217;50.422;7.210;2024-03-06T00:04:51;4.10;99.90
56308;DHT22;42217;50.422;7.210;2024-03-06T00:07:17;4.00;99.90
56308;DHT22;42217;50.422;7.210;2024-03-06T00:09:42;3.90;99.90
56308;DHT22;42217;50.422;7.210;2024-03-06T00:12:08;3.80;99.90
56308;DHT22;42217;50.422;7.210;2024-03-06T00:14:34;3.80;99.90
56308;DHT22;42217;50.422;7.210;2024-03-06T00:17:02;3.90;99.90
56308;DHT22;42217;50.422;7.210;2024-03-06T00:19:30;4.00;99.90
56308;DHT22;42217;50.422;7.210;2024-03-06T00:21:56;4.00;99.90
56308;DHT22;42217;50.422;7.210;2024-03-06T00:24:21;4.10;99.90
56308;DHT22;42217;50.422;7.210;2024-03-06T00:26:48;4.10;99.90
56308;DHT22;42217;50.422;7.210;2024-03-06T00:29:14;4.10;99.90
56308;DHT22;42217;50.422;7.210;2024-03-06T00:31:44;4.00;99.90
56308;DHT22;42217;50.422;7.210;2024-03-06T00:34:11;3.90;99.90
56308;DHT22;42217;50.422;7.210;2024-03-06T00:36:39;3.90;99.90
56308;DHT22;42217;50.422;7.210;2024-03-06T00:39:05;3.80;99.90
56308;DHT22;42217;50.422;7.210;2024-03-06T00:41:31;3.60;99.90
56308;DHT22;42217;50.422;7.210;2024-03-06T00:43:57;3.50;99.90
56308;DHT22;42217;50.422;7.210;2024-03-06T00:46:23;3.50;99.90
56308;DHT22;42217;50.422;7.210;2024-03-06T00:48:49;3.50;99.90
56308;DHT22;42217;50.422;7.210;2024-03-06T00:51:14;3.30;99.90
56308;DHT22;42217;50.422;7.210;2024-03-06T00:53:40;3.10;99.90
56308;DHT22;42217;50.422;7.210;2024-03-06T00:56:07;3.20;99.90
56308;DHT22;42217;50.422;7.210;2024-03-06T00:58:32;3.10;99.90
56308;DHT22;42217;50.422;7.210;2024-03-06T01:00:58;3.20;99.90
56308;DHT22;42217;50.422;7.210;2024-03-06T01:03:24;3.30;99.90
56308;DHT22;42217;50.422;7.210;2024-03-06T01:05:50;3.40;99.90
56308;DHT22;42217;50.422;7.210;2024-03-06T01:08:17;3.50;99.90
56308;DHT22;42217;50.422;7.210;2024-03-06T01:10:43;3.40;99.90
56308;DHT22;42217;50.422;7.210;2024-03-06T01:13:09;3.40;99.90
56308;DHT22;42217;50.422;7.210;2024-03-06T01:15:37;3.30;99.90
56308;DHT22;42217;50.422;7.210;2024-03-06T01:18:03;3.30;99.90
56308;DHT22;42217;50.422;7.210;2024-03-06T01:20:28;3.30;99.90
56308;DHT22;42217;50.422;7.210;2024-03-06T01:22:54;3.30;99.90
56308;DHT22;42217;50.422;7.210;2024-03-06T01:25:20;3.30;99.90
56308;DHT22;42217;50.422;7.210;2024-03-06T01:27:48;3.40;99.90
56308;DHT22;42217;50.422;7.210;2024-03-06T01:30:14;3.30;99.90
56308;DHT22;42217;50.422;7.210;2024-03-06T01:32:40;3.30;99.90
56308;DHT22;42217;50.422;7.210;2024-03-06T01:35:06;3.30;99.90
56308;DHT22;42217;50.422;7.210;2024-03-06T01:37:32;3.20;99.90
56308;DHT22;42217;50.422;7.210;2024-03-06T01:39:58;3.30;99.90
56308;DHT22;42217;50.422;7.210;2024-03-06T01:42:24;3.30;99.90
56308;DHT22;42217;50.422;7.210;2024-03-06T01:44:49;3.20;99.90
56308;DHT22;42217;50.422;7.210;2024-03-06T01:47:15;3.10;99.90
56308;DHT22;42217;50.422;7.210;2024-03-06T01:49:41;3.00;99.90
56308;DHT22;42217;50.422;7.210;2024-03-06T01:52:09;3.00;99.90
56308;DHT22;42217;50.422;7.210;2024-03-06T01:54:37;2.90;99.90
56308;DHT22;42217;50.422;7.210;2024-03-06T01:57:04;2.80;99.90
56308;DHT22;42217;50.422;7.210;2024-03-06T01:59:32;2.60;99.90
56308;DHT22;42217;50.422;7.210;2024-03-06T02:01:58;2.50;99.90
56308;DHT22;42217;50.422;7.210;2024-03-06T02:04:25;2.30;99.90
56308;DHT22;42217;50.422;7.210;2024-03-06T02:06:53;2.20;99.90
56308;DHT22;42217;50.422;7.210;2024-03-06T02:09:19;2.00;99.90
56308;DHT22;42217;50.422;7.210;2024-03-06T02:11:45;2.00;99.90
56308;DHT22;42217;50.422;7.210;2024-03-06T02:14:11;2.20;99.90
56308;DHT22;42217;50.422;7.210;2024-03-06T02:16:38;2.40;99.90
56308;DHT22;42217;50.422;7.210;2024-03-06T02:19:07;2.50;99.90
56308;DHT22;42217;50.422;7.210;2024-03-06T02:21:33;2.50;99.90
56308;DHT22;42217;50.422;7.210;2024-03-06T02:23:59;2.50;99.90
56308;DHT22;42217;50.422;7.210;2024-03-06T02:26:25;2.30;99.90
56308;DHT22;42217;50.422;7.210;2024-03-06T02:28:52;2.10;99.90
56308;DHT22;42217;50.422;7.210;2024-03-06T02:31:19;2.00;99.90
56308;DHT22;42217;50.422;7.210;2024-03-06T02:33:49;1.80;99.90
56308;DHT22;42217;50.422;7.210;2024-03-06T02:36:18;1.70;99.90
56308;DHT22;42217;50.422;7.210;2024-03-06T02:38:44;1.60;99.90
56308;DHT22;42217;50.422;7.210;2024-03-06T02:41:11;1.50;99.90
56308;DHT22;42217;50.422;7.210;2024-03-06T02:43:37;1.40;99.90
56308;DHT22;42217;50.422;7.210;2024-03-06T02:46:03;1.50;99.90
56308;DHT22;42217;50.422;7.210;2024-03-06T02:48:29;1.60;99.90
56308;DHT22;42217;50.422;7.210;2024-03-06T02:50:55;1.90;99.90
56308;DHT22;42217;50.422;7.210;2024-03-06T02:53:21;2.10;99.90
56308;DHT22;42217;50.422;7.210;2024-03-06T02:55:47;2.00;99.90
56308;DHT22;42217;50.422;7.210;2024-03-06T02:58:12;2.00;99.90
56308;DHT22;42217;50.422;7.210;2024-03-06T03:00:39;1.90;99.90
56308;DHT22;42217;50.422;7.210;2024-03-06T03:03:06;1.80;99.90
56308;DHT22;42217;50.422;7.210;2024-03-06T03:05:32;1.60;99.90
56308;DHT22;42217;50.422;7.210;2024-03-06T03:07:59;1.30;99.90
56308;DHT22;42217;50.422;7.210;2024-03-06T03:10:24;1.40;99.90
56308;DHT22;42217;50.422;7.210;2024-03-06T03:12:51;1.60;99.90
56308;DHT22;42217;50.422;7.210;2024-03-06T03:15:17;1.70;99.90
56308;DHT22;42217;50.422;7.210;2024-03-06T03:17:43;1.70;99.90
56308;DHT22;42217;50.422;7.210;2024-03-06T03:20:09;1.60;99.90
56308;DHT22;42217;50.422;7.210;2024-03-06T03:22:39;1.60;99.90
56308;DHT22;42217;50.422;7.210;2024-03-06T03:25:14;1.60;99.90
56308;DHT22;42217;50.422;7.210;2024-03-06T03:27:40;1.70;99.90
56308;DHT22;42217;50.422;7.210;2024-03-06T03:30:12;1.80;99.90
56308;DHT22;42217;50.422;7.210;2024-03-06T03:32:38;1.90;99.90
56308;DHT22;42217;50.422;7.210;2024-03-06T03:35:05;1.90;99.90
56308;DHT22;42217;50.422;7.210;2024-03-06T03:37:31;1.90;99.90
56308;DHT22;42217;50.422;7.210;2024-03-06T03:39:57;1.80;99.90
56308;DHT22;42217;50.422;7.210;2024-03-06T03:42:22;1.80;99.90
56308;DHT22;42217;50.422;7.210;2024-03-06T03:44:48;1.80;99.90
56308;DHT22;42217;50.422;7.210;2024-03-06T03:47:14;1.70;99.90
56308;DHT22;42217;50.422;7.210;2024-03-06T03:49:39;1.60;99.90
56308;DHT22;42217;50.422;7.210;2024-03-06T03:52:05;1.50;99.90
56308;DHT22;42217;50.422;7.210;2024-03-06T03:54:32;1.50;99.90
56308;DHT22;42217;50.422;7.210;2024-03-06T03:56:58;1.70;99.90
56308;DHT22;42217;50.422;7.210;2024-03-06T03:59:25;1.80;99.90
56308;DHT22;42217;50.422;7.210;2024-03-06T04:01:51;1.70;99.90
56308;DHT22;42217;50.422;7.210;2024-03-06T04:04:17;1.20;99.90
56308;DHT22;42217;50.422;7.210;2024-03-06T04:06:42;0.90;99.90
56308;DHT22;42217;50.422;7.210;2024-03-06T04:09:08;1.00;99.90
56308;DHT22;42217;50.422;7.210;2024-03-06T04:11:37;1.40;99.90
56308;DHT22;42217;50.422;7.210;2024-03-06T04:14:06;1.50;99.90
56308;DHT22;42217;50.422;7.210;2024-03-06T04:16:32;1.50;99.90
56308;DHT22;42217;50.422;7.210;2024-03-06T04:18:58;1.40;99.90
56308;DHT22;42217;50.422;7.210;2024-03-06T04:21:24;1.30;99.90
56308;DHT22;42217;50.422;7.210;2024-03-06T04:23:49;1.30;99.90
56308;DHT22;42217;50.422;7.210;2024-03-06T04:26:15;1.40;99.90
56308;DHT22;42217;50.422;7.210;2024-03-06T04:28:43;1.20;99.90
56308;DHT22;42217;50.422;7.210;2024-03-06T04:31:09;0.90;99.90
56308;DHT22;42217;50.422;7.210;2024-03-06T04:33:35;0.60;99.90
56308;DHT22;42217;50.422;7.210;2024-03-06T04:36:04;0.60;99.90
56308;DHT22;42217;50.422;7.210;2024-03-06T04:38:34;0.60;99.90
56308;DHT22;42217;50.422;7.210;2024-03-06T04:40:59;0.50;99.90
56308;DHT22;42217;50.422;7.210;2024-03-06T04:43:25;0.50;99.90
56308;DHT22;42217;50.422;7.210;2024-03-06T04:45:51;0.40;99.90
56308;DHT22;42217;50.422;7.210;2024-03-06T04:48:17;0.20;99.90
56308;DHT22;42217;50.422;7.210;2024-03-06T04:50:43;0.10;99.90
56308;DHT22;42217;50.422;7.210;2024-03-06T04:53:10;-0.10;99.90
56308;DHT22;42217;50.422;7.210;2024-03-06T04:55:36;0.00;99.90
56308;DHT22;42217;50.422;7.210;2024-03-06T04:58:02;0.30;99.90
56308;DHT22;42217;50.422;7.210;2024-03-06T05:00:29;0.70;99.90
56308;DHT22;42217;50.422;7.210;2024-03-06T05:02:55;0.90;99.90
56308;DHT22;42217;50.422;7.210;2024-03-06T05:05:21;1.10;99.90
56308;DHT22;42217;50.422;7.210;2024-03-06T05:07:48;1.30;99.90
56308;DHT22;42217;50.422;7.210;2024-03-06T05:10:14;1.10;99.90
56308;DHT22;42217;50.422;7.210;2024-03-06T05:12:41;0.80;99.90
56308;DHT22;42217;50.422;7.210;2024-03-06T05:15:07;0.50;99.90
56308;DHT22;42217;50.422;7.210;2024-03-06T05:17:34;0.30;99.90
56308;DHT22;42217;50.422;7.210;2024-03-06T05:20:00;0.30;99.90
56308;DHT22;42217;50.422;7.210;2024-03-06T05:22:25;0.10;99.90
56308;DHT22;42217;50.422;7.210;2024-03-06T05:24:52;0.10;99.90
56308;DHT22;42217;50.422;7.210;2024-03-06T05:27:18;0.00;99.90
56308;DHT22;42217;50.422;7.210;2024-03-06T05:29:44;-0.10;99.90
56308;DHT22;42217;50.422;7.210;2024-03-06T05:32:10;-0.20;99.90
56308;DHT22;42217;50.422;7.210;2024-03-06T05:34:36;-0.40;99.90
56308;DHT22;42217;50.422;7.210;2024-03-06T05:37:01;-0.40;99.90
56308;DHT22;42217;50.422;7.210;2024-03-06T05:39:35;-0.30;99.90
56308;DHT22;42217;50.422;7.210;2024-03-06T05:42:05;-0.20;99.90
56308;DHT22;42217;50.422;7.210;2024-03-06T05:44:34;0.00;99.90
56308;DHT22;42217;50.422;7.210;2024-03-06T05:47:01;0.70;99.90
56308;DHT22;42217;50.422;7.210;2024-03-06T05:49:28;1.20;99.90
56308;DHT22;42217;50.422;7.210;2024-03-06T05:51:55;1.20;99.90
56308;DHT22;42217;50.422;7.210;2024-03-06T05:54:21;1.00;99.90
56308;DHT22;42217;50.422;7.210;2024-03-06T05:56:48;1.00;99.90
56308;DHT22;42217;50.422;7.210;2024-03-06T05:59:15;0.90;99.90
56308;DHT22;42217;50.422;7.210;2024-03-06T06:01:41;0.90;99.90
56308;DHT22;42217;50.422;7.210;2024-03-06T06:04:08;0.80;99.90
56308;DHT22;42217;50.422;7.210;2024-03-06T06:06:37;0.70;99.90
56308;DHT22;42217;50.422;7.210;2024-03-06T06:09:03;0.70;99.90
56308;DHT22;42217;50.422;7.210;2024-03-06T06:11:32;0.70;99.90
56308;DHT22;42217;50.422;7.210;2024-03-06T06:14:01;0.70;99.90
56308;DHT22;42217;50.422;7.210;2024-03-06T06:16:34;0.80;99.90
56308;DHT22;42217;50.422;7.210;2024-03-06T06:18:59;0.70;99.90
56308;DHT22;42217;50.422;7.210;2024-03-06T06:21:25;0.70;99.90
56308;DHT22;42217;50.422;7.210;2024-03-06T06:23:51;0.80;99.90
56308;DHT22;42217;50.422;7.210;2024-03-06T06:26:16;0.90;99.90
56308;DHT22;42217;50.422;7.210;2024-03-06T06:28:42;1.10;99.90
56308;DHT22;42217;50.422;7.210;2024-03-06T06:31:08;1.00;99.90
56308;DHT22;42217;50.422;7.210;2024-03-06T06:33:34;0.80;99.90
56308;DHT22;42217;50.422;7.210;2024-03-06T06:36:00;0.70;99.90
56308;DHT22;42217;50.422;7.210;2024-03-06T06:38:25;0.50;99.90
56308;DHT22;42217;50.422;7.210;2024-03-06T06:40:51;0.50;99.90
56308;DHT22;42217;50.422;7.210;2024-03-06T06:43:18;0.70;99.90
56308;DHT22;42217;50.422;7.210;2024-03-06T06:45:43;1.10;99.90
56308;DHT22;42217;50.422;7.210;2024-03-06T06:48:09;1.50;99.90
56308;DHT22;42217;50.422;7.210;2024-03-06T06:50:35;1.60;99.90
56308;DHT22;42217;50.422;7.210;2024-03-06T06:53:01;1.80;99.90
56308;DHT22;42217;50.422;7.210;2024-03-06T06:55:27;1.90;99.90
56308;DHT22;42217;50.422;7.210;2024-03-06T06:57:52;1.90;99.90
56308;DHT22;42217;50.422;7.210;2024-03-06T07:00:19;1.90;99.90
56308;DHT22;42217;50.422;7.210;2024-03-06T07:02:47;2.00;99.90
56308;DHT22;42217;50.422;7.210;2024-03-06T07:05:13;2.00;99.90
56308;DHT22;42217;50.422;7.210;2024-03-06T07:07:38;2.00;99.90
56308;DHT22;42217;50.422;7.210;2024-03-06T07:10:04;1.90;99.90
56308;DHT22;42217;50.422;7.210;2024-03-06T07:12:31;1.70;99.90
56308;DHT22;42217;50.422;7.210;2024-03-06T07:14:57;1.60;99.90
56308;DHT22;42217;50.422;7.210;2024-03-06T07:17:23;1.60;99.90
56308;DHT22;42217;50.422;7.210;2024-03-06T07:19:49;1.60;99.90
56308;DHT22;42217;50.422;7.210;2024-03-06T07:22:16;1.80;99.90
56308;DHT22;42217;50.422;7.210;2024-03-06T07:24:41;1.90;99.90
56308;DHT22;42217;50.422;7.210;2024-03-06T07:27:07;2.00;99.90
56308;DHT22;42217;50.422;7.210;2024-03-06T07:29:37;2.20;99.90
56308;DHT22;42217;50.422;7.210;2024-03-06T07:32:03;2.30;99.90
56308;DHT22;42217;50.422;7.210;2024-03-06T07:34:31;2.40;99.90
56308;DHT22;42217;50.422;7.210;2024-03-06T07:36:57;2.60;99.90
56308;DHT22;42217;50.422;7.210;2024-03-06T07:39:25;2.70;99.90
56308;DHT22;42217;50.422;7.210;2024-03-06T07:41:51;3.00;99.90
56308;DHT22;42217;50.422;7.210;2024-03-06T07:44:16;3.20;99.90
56308;DHT22;42217;50.422;7.210;2024-03-06T07:46:42;3.30;99.90
56308;DHT22;42217;50.422;7.210;2024-03-06T07:49:08;3.50;99.90
56308;DHT22;42217;50.422;7.210;2024-03-06T07:51:34;3.60;99.90
56308;DHT22;42217;50.422;7.210;2024-03-06T07:54:01;3.50;99.90
56308;DHT22;42217;50.422;7.210;2024-03-06T07:56:29;3.50;99.90
56308;DHT22;42217;50.422;7.210;2024-03-06T07:58:55;3.60;99.90
56308;DHT22;42217;50.422;7.210;2024-03-06T08:01:21;3.60;99.90
56308;DHT22;42217;50.422;7.210;2024-03-06T08:03:47;3.60;99.90
56308;DHT22;42217;50.422;7.210;2024-03-06T08:06:13;3.60;99.90
56308;DHT22;42217;50.422;7.210;2024-03-06T08:08:43;3.70;99.90
56308;DHT22;42217;50.422;7.210;2024-03-06T08:11:12;3.80;99.90
56308;DHT22;42217;50.422;7.210;2024-03-06T08:13:39;3.80;99.90
56308;DHT22;42217;50.422;7.210;2024-03-06T08:16:05;4.00;99.90
56308;DHT22;42217;50.422;7.210;2024-03-06T08:18:32;4.20;99.90
56308;DHT22;42217;50.422;7.210;2024-03-06T08:20:59;4.30;99.90
56308;DHT22;42217;50.422;7.210;2024-03-06T08:23:24;4.40;99.90
56308;DHT22;42217;50.422;7.210;2024-03-06T08:25:51;4.50;99.90
56308;DHT22;42217;50.422;7.210;2024-03-06T08:28:17;4.70;99.90
56308;DHT22;42217;50.422;7.210;2024-03-06T08:30:42;4.90;99.90
56308;DHT22;42217;50.422;7.210;2024-03-06T08:33:10;5.00;99.90
56308;DHT22;42217;50.422;7.210;2024-03-06T08:35:35;5.20;99.90
56308;DHT22;42217;50.422;7.210;2024-03-06T08:38:01;5.30;99.90
56308;DHT22;42217;50.422;7.210;2024-03-06T08:40:27;5.50;99.90
56308;DHT22;42217;50.422;7.210;2024-03-06T08:42:54;5.70;99.90
56308;DHT22;42217;50.422;7.210;2024-03-06T08:45:20;5.80;99.90
56308;DHT22;42217;50.422;7.210;2024-03-06T08:47:46;5.90;99.90
56308;DHT22;42217;50.422;7.210;2024-03-06T08:50:14;5.90;99.90
56308;DHT22;42217;50.422;7.210;2024-03-06T08:52:40;6.00;99.90
56308;DHT22;42217;50.422;7.210;2024-03-06T08:55:11;6.10;99.90
56308;DHT22;42217;50.422;7.210;2024-03-06T08:57:37;6.30;99.90
56308;DHT22;42217;50.422;7.210;2024-03-06T09:00:07;6.50;99.90
56308;DHT22;42217;50.422;7.210;2024-03-06T09:02:36;6.60;99.90
56308;DHT22;42217;50.422;7.210;2024-03-06T09:05:05;6.60;99.90
56308;DHT22;42217;50.422;7.210;2024-03-06T09:07:31;6.60;99.90
56308;DHT22;42217;50.422;7.210;2024-03-06T09:09:57;6.60;99.90
56308;DHT22;42217;50.422;7.210;2024-03-06T09:12:23;6.70;99.90
56308;DHT22;42217;50.422;7.210;2024-03-06T09:14:48;6.60;99.90
56308;DHT22;42217;50.422;7.210;2024-03-06T09:17:14;6.70;99.90
56308;DHT22;42217;50.422;7.210;2024-03-06T09:19:41;6.70;99.90
56308;DHT22;42217;50.422;7.210;2024-03-06T09:22:07;6.70;99.90
56308;DHT22;42217;50.422;7.210;2024-03-06T09:24:33;6.70;99.90
56308;DHT22;42217;50.422;7.210;2024-03-06T09:27:01;6.70;99.90
56308;DHT22;42217;50.422;7.210;2024-03-06T09:29:26;6.70;99.90
56308;DHT22;42217;50.422;7.210;2024-03-06T09:31:52;6.80;99.90
56308;DHT22;42217;50.422;7.210;2024-03-06T09:34:18;6.90;99.90
56308;DHT22;42217;50.422;7.210;2024-03-06T09:36:48;6.90;99.90
56308;DHT22;42217;50.422;7.210;2024-03-06T09:39:14;7.00;99.90
56308;DHT22;42217;50.422;7.210;2024-03-06T09:41:44;6.90;99.90
56308;DHT22;42217;50.422;7.210;2024-03-06T09:44:10;7.10;99.90
56308;DHT22;42217;50.422;7.210;2024-03-06T09:46:36;7.20;99.90
56308;DHT22;42217;50.422;7.210;2024-03-06T09:49:02;7.20;99.90
56308;DHT22;42217;50.422;7.210;2024-03-06T09:51:28;7.20;99.90
56308;DHT22;42217;50.422;7.210;2024-03-06T09:53:54;7.20;99.90
56308;DHT22;42217;50.422;7.210;2024-03-06T09:56:20;7.30;99.90
56308;DHT22;42217;50.422;7.210;2024-03-06T09:58:46;7.20;99.90
56308;DHT22;42217;50.422;7.210;2024-03-06T10:01:13;7.20;99.90
56308;DHT22;42217;50.422;7.210;2024-03-06T10:03:39;7.20;99.90
56308;DHT22;42217;50.422;7.210;2024-03-06T10:06:08;7.20;99.90
56308;DHT22;42217;50.422;7.210;2024-03-06T10:08:34;7.30;99.90
56308;DHT22;42217;50.422;7.210;2024-03-06T10:11:00;7.30;99.90
56308;DHT22;42217;50.422;7.210;2024-03-06T10:13:26;7.30;99.90
56308;DHT22;42217;50.422;7.210;2024-03-06T10:16:00;7.30;99.90
56308;DHT22;42217;50.422;7.210;2024-03-06T10:18:35;7.30;99.90
56308;DHT22;42217;50.422;7.210;2024-03-06T10:21:04;7.30;99.90
56308;DHT22;42217;50.422;7.210;2024-03-06T10:23:31;7.40;99.90
56308;DHT22;42217;50.422;7.210;2024-03-06T10:25:57;7.50;99.90
56308;DHT22;42217;50.422;7.210;2024-03-06T10:28:23;7.50;99.90
56308;DHT22;42217;50.422;7.210;2024-03-06T10:30:50;7.60;99.90
56308;DHT22;42217;50.422;7.210;2024-03-06T10:33:18;7.70;99.90
56308;DHT22;42217;50.422;7.210;2024-03-06T10:35:46;7.70;99.90
56308;DHT22;42217;50.422;7.210;2024-03-06T10:38:12;7.70;99.90
56308;DHT22;42217;50.422;7.210;2024-03-06T10:40:42;7.80;99.90
56308;DHT22;42217;50.422;7.210;2024-03-06T10:43:09;7.80;99.90
56308;DHT22;42217;50.422;7.210;2024-03-06T10:45:43;7.90;99.90
56308;DHT22;42217;50.422;7.210;2024-03-06T10:48:16;7.90;99.90
56308;DHT22;42217;50.422;7.210;2024-03-06T10:50:44;7.90;99.90
56308;DHT22;42217;50.422;7.210;2024-03-06T10:53:14;8.10;99.90
56308;DHT22;42217;50.422;7.210;2024-03-06T10:55:40;8.20;99.90
56308;DHT22;42217;50.422;7.210;2024-03-06T10:58:10;8.10;99.90
56308;DHT22;42217;50.422;7.210;2024-03-06T11:00:40;8.10;99.90
56308;DHT22;42217;50.422;7.210;2024-03-06T11:03:07;8.20;99.90
56308;DHT22;42217;50.422;7.210;2024-03-06T11:05:37;8.40;99.90
56308;DHT22;42217;50.422;7.210;2024-03-06T11:08:10;8.30;99.90
56308;DHT22;42217;50.422;7.210;2024-03-06T11:10:38;8.20;99.90
56308;DHT22;42217;50.422;7.210;2024-03-06T11:15:47;8.40;99.90
56308;DHT22;42217;50.422;7.210;2024-03-06T11:23:25;8.70;99.90
56308;DHT22;42217;50.422;7.210;2024-03-06T11:28:20;8.90;99.90
56308;DHT22;42217;50.422;7.210;2024-03-06T11:33:15;9.00;99.90
56308;DHT22;42217;50.422;7.210;2024-03-06T11:35:42;9.10;99.90
56308;DHT22;42217;50.422;7.210;2024-03-06T11:38:16;9.20;99.90
56308;DHT22;42217;50.422;7.210;2024-03-06T11:40:43;9.50;99.90
56308;DHT22;42217;50.422;7.210;2024-03-06T11:43:25;9.80;99.90
56308;DHT22;42217;50.422;7.210;2024-03-06T11:45:52;10.00;99.90
56308;DHT22;42217;50.422;7.210;2024-03-06T11:48:18;9.80;99.90
56308;DHT22;42217;50.422;7.210;2024-03-06T11:50:47;9.80;99.90
56308;DHT22;42217;50.422;7.210;2024-03-06T11:53:14;9.70;99.90
56308;DHT22;42217;50.422;7.210;2024-03-06T11:55:39;9.90;99.90
56308;DHT22;42217;50.422;7.210;2024-03-06T11:58:05;9.90;99.90
56308;DHT22;42217;50.422;7.210;2024-03-06T12:00:33;9.90;99.90
56308;DHT22;42217;50.422;7.210;2024-03-06T12:02:59;9.90;99.90
56308;DHT22;42217;50.422;7.210;2024-03-06T12:05:24;9.90;99.90
56308;DHT22;42217;50.422;7.210;2024-03-06T12:07:52;9.90;99.90
56308;DHT22;42217;50.422;7.210;2024-03-06T12:10:18;10.10;99.90
56308;DHT22;42217;50.422;7.210;2024-03-06T12:12:44;10.10;99.90
56308;DHT22;42217;50.422;7.210;2024-03-06T12:15:11;10.10;99.90
56308;DHT22;42217;50.422;7.210;2024-03-06T12:17:48;10.30;99.90
56308;DHT22;42217;50.422;7.210;2024-03-06T12:20:17;10.40;99.90
56308;DHT22;42217;50.422;7.210;2024-03-06T12:22:53;10.40;99.90
56308;DHT22;42217;50.422;7.210;2024-03-06T12:25:24;10.60;99.90
56308;DHT22;42217;50.422;7.210;2024-03-06T12:27:52;10.60;99.90
56308;DHT22;42217;50.422;7.210;2024-03-06T12:30:19;10.40;99.90
56308;DHT22;42217;50.422;7.210;2024-03-06T12:32:56;10.10;99.90
56308;DHT22;42217;50.422;7.210;2024-03-06T12:35:26;10.00;99.90
56308;DHT22;42217;50.422;7.210;2024-03-06T12:37:52;9.80;99.90
56308;DHT22;42217;50.422;7.210;2024-03-06T12:40:19;9.80;99.90
56308;DHT22;42217;50.422;7.210;2024-03-06T12:42:45;9.70;99.90
56308;DHT22;42217;50.422;7.210;2024-03-06T12:45:12;9.60;99.90
56308;DHT22;42217;50.422;7.210;2024-03-06T12:47:41;9.50;99.90
56308;DHT22;42217;50.422;7.210;2024-03-06T12:50:07;9.50;99.90
56308;DHT22;42217;50.422;7.210;2024-03-06T12:52:34;9.60;99.90
56308;DHT22;42217;50.422;7.210;2024-03-06T12:55:00;9.90;99.90
56308;DHT22;42217;50.422;7.210;2024-03-06T12:57:26;10.00;99.90
56308;DHT22;42217;50.422;7.210;2024-03-06T12:59:53;10.10;99.90
56308;DHT22;42217;50.422;7.210;2024-03-06T13:02:19;10.20;99.90
56308;DHT22;42217;50.422;7.210;2024-03-06T13:04:44;10.20;99.90
56308;DHT22;42217;50.422;7.210;2024-03-06T13:07:11;10.20;99.90
56308;DHT22;42217;50.422;7.210;2024-03-06T13:09:37;10.40;99.90
56308;DHT22;42217;50.422;7.210;2024-03-06T13:12:04;10.50;99.90
56308;DHT22;42217;50.422;7.210;2024-03-06T13:14:31;10.50;99.90
56308;DHT22;42217;50.422;7.210;2024-03-06T13:16:58;10.60;99.90
56308;DHT22;42217;50.422;7.210;2024-03-06T13:19:23;10.80;99.90
56308;DHT22;42217;50.422;7.210;2024-03-06T13:21:49;11.00;99.90
56308;DHT22;42217;50.422;7.210;2024-03-06T13:24:15;11.20;99.90
56308;DHT22;42217;50.422;7.210;2024-03-06T13:26:40;11.20;99.90
56308;DHT22;42217;50.422;7.210;2024-03-06T13:29:09;11.30;99.90
56308;DHT22;42217;50.422;7.210;2024-03-06T13:31:35;11.40;99.90
56308;DHT22;42217;50.422;7.210;2024-03-06T13:34:01;11.50;99.90
56308;DHT22;42217;50.422;7.210;2024-03-06T13:36:28;11.40;99.90
56308;DHT22;42217;50.422;7.210;2024-03-06T13:38:54;11.20;99.90
56308;DHT22;42217;50.422;7.210;2024-03-06T13:41:21;11.20;99.90
56308;DHT22;42217;50.422;7.210;2024-03-06T13:43:46;11.30;99.90
56308;DHT22;42217;50.422;7.210;2024-03-06T13:46:12;11.40;99.90
56308;DHT22;42217;50.422;7.210;2024-03-06T13:48:38;11.60;99.90
56308;DHT22;42217;50.422;7.210;2024-03-06T13:51:04;11.60;99.90
56308;DHT22;42217;50.422;7.210;2024-03-06T13:53:31;11.70;99.90
56308;DHT22;42217;50.422;7.210;2024-03-06T13:55:57;11.90;99.90
56308;DHT22;42217;50.422;7.210;2024-03-06T13:58:22;12.00;99.90
56308;DHT22;42217;50.422;7.210;2024-03-06T14:00:48;11.90;99.90
56308;DHT22;42217;50.422;7.210;2024-03-06T14:03:14;12.00;99.90
56308;DHT22;42217;50.422;7.210;2024-03-06T14:05:40;11.90;99.90
56308;DHT22;42217;50.422;7.210;2024-03-06T14:08:06;12.00;99.90
56308;DHT22;42217;50.422;7.210;2024-03-06T14:10:33;12.10;99.90
56308;DHT22;42217;50.422;7.210;2024-03-06T14:13:02;12.50;99.90
56308;DHT22;42217;50.422;7.210;2024-03-06T14:15:28;12.60;99.90
56308;DHT22;42217;50.422;7.210;2024-03-06T14:17:54;12.90;99.90
56308;DHT22;42217;50.422;7.210;2024-03-06T14:20:20;14.30;99.90
56308;DHT22;42217;50.422;7.210;2024-03-06T14:22:46;16.00;98.80
56308;DHT22;42217;50.422;7.210;2024-03-06T14:25:12;17.30;95.10
56308;DHT22;42217;50.422;7.210;2024-03-06T14:27:38;17.10;93.50
56308;DHT22;42217;50.422;7.210;2024-03-06T14:30:05;16.50;92.80
56308;DHT22;42217;50.422;7.210;2024-03-06T14:32:36;16.90;91.60
56308;DHT22;42217;50.422;7.210;2024-03-06T14:35:02;17.50;91.20
56308;DHT22;42217;50.422;7.210;2024-03-06T14:37:28;18.40;92.30
56308;DHT22;42217;50.422;7.210;2024-03-06T14:39:56;19.70;83.60
56308;DHT22;42217;50.422;7.210;2024-03-06T14:42:22;20.80;79.60
56308;DHT22;42217;50.422;7.210;2024-03-06T14:44:49;21.40;73.00
56308;DHT22;42217;50.422;7.210;2024-03-06T14:47:14;21.20;69.90
56308;DHT22;42217;50.422;7.210;2024-03-06T14:49:42;21.10;70.20
56308;DHT22;42217;50.422;7.210;2024-03-06T14:52:10;21.00;76.30
56308;DHT22;42217;50.422;7.210;2024-03-06T14:54:36;18.80;84.60
56308;DHT22;42217;50.422;7.210;2024-03-06T14:57:02;18.20;88.50
56308;DHT22;42217;50.422;7.210;2024-03-06T14:59:27;17.20;91.20
56308;DHT22;42217;50.422;7.210;2024-03-06T15:01:53;18.20;91.60
56308;DHT22;42217;50.422;7.210;2024-03-06T15:04:18;19.20;90.90
56308;DHT22;42217;50.422;7.210;2024-03-06T15:06:45;18.60;89.20
56308;DHT22;42217;50.422;7.210;2024-03-06T15:09:11;16.90;91.60
56308;DHT22;42217;50.422;7.210;2024-03-06T15:11:39;16.10;93.70
56308;DHT22;42217;50.422;7.210;2024-03-06T15:14:05;15.50;94.70
56308;DHT22;42217;50.422;7.210;2024-03-06T15:16:33;14.40;97.90
56308;DHT22;42217;50.422;7.210;2024-03-06T15:18:59;12.90;99.90
56308;DHT22;42217;50.422;7.210;2024-03-06T15:21:25;12.10;99.90
56308;DHT22;42217;50.422;7.210;2024-03-06T15:23:50;11.50;99.90
56308;DHT22;42217;50.422;7.210;2024-03-06T15:26:18;11.20;99.90
56308;DHT22;42217;50.422;7.210;2024-03-06T15:28:43;11.10;78.80
56308;DHT22;42217;50.422;7.210;2024-03-06T15:31:10;10.80;99.90
56308;DHT22;42217;50.422;7.210;2024-03-06T15:33:36;10.60;1.00
56308;DHT22;42217;50.422;7.210;2024-03-06T15:36:02;10.50;99.90
56308;DHT22;42217;50.422;7.210;2024-03-06T15:38:28;10.30;99.90
56308;DHT22;42217;50.422;7.210;2024-03-06T15:40:54;10.00;99.90
56308;DHT22;42217;50.422;7.210;2024-03-06T15:43:20;9.80;99.90
56308;DHT22;42217;50.422;7.210;2024-03-06T15:45:45;9.70;99.90
56308;DHT22;42217;50.422;7.210;2024-03-06T15:48:11;9.80;99.90
56308;DHT22;42217;50.422;7.210;2024-03-06T15:50:45;9.70;99.90
56308;DHT22;42217;50.422;7.210;2024-03-06T15:53:11;9.80;99.90